createdAt,value
2023-01-12T00:04:40.957Z,1.90
2023-01-12T00:07:16.506Z,1.88
2023-01-12T00:09:55.624Z,1.73
2023-01-12T00:19:56.323Z,2.55
2023-01-12T00:25:36.026Z,1.90
2023-01-12T00:28:05.792Z,1.10
2023-01-12T00:34:22.512Z,1.50
2023-01-12T00:44:56.585Z,1.00
2023-01-12T00:48:22.583Z,1.08
2023-01-12T00:50:48.502Z,0.80
2023-01-12T00:53:32.979Z,0.90
2023-01-12T00:56:06.308Z,1.10
2023-01-12T00:58:41.658Z,1.20
2023-01-12T01:01:38.945Z,1.45
2023-01-12T01:07:36.273Z,1.42
2023-01-12T01:21:39.078Z,1.30
2023-01-12T01:28:01.966Z,1.17
2023-01-12T01:30:38.794Z,1.53
2023-01-12T01:33:12.571Z,1.83
2023-01-12T01:35:45.479Z,1.75
2023-01-12T01:38:41.657Z,1.40
2023-01-12T01:41:24.744Z,2.50
2023-01-12T01:44:28.681Z,1.58
2023-01-12T01:47:49.434Z,1.10
2023-01-12T01:54:53.793Z,1.58
2023-01-12T01:57:22.124Z,0.93
2023-01-12T01:59:53.986Z,1.02
2023-01-12T02:02:21.272Z,0.52
2023-01-12T02:04:48.367Z,0.77
2023-01-12T02:07:23.848Z,0.80
2023-01-12T02:09:53.593Z,1.60
2023-01-12T02:12:50.546Z,1.45
2023-01-12T02:15:36.050Z,0.63
2023-01-12T02:18:11.950Z,0.57
2023-01-12T02:20:48.595Z,0.75
2023-01-12T02:23:57.145Z,0.70
2023-01-12T02:27:03.972Z,0.45
2023-01-12T02:29:49.988Z,0.60
2023-01-12T02:33:00.652Z,0.60
2023-01-12T02:35:49.530Z,0.57
2023-01-12T02:38:45.946Z,0.65
2023-01-12T02:41:58.883Z,0.52
2023-01-12T02:44:32.776Z,1.02
2023-01-12T02:49:31.157Z,0.77
2023-01-12T02:52:00.371Z,0.70
2023-01-12T02:54:27.560Z,0.40
2023-01-12T02:56:58.293Z,1.05
2023-01-12T02:59:29.893Z,0.60
2023-01-12T03:02:24.897Z,1.15
2023-01-12T03:05:10.994Z,0.63
2023-01-12T03:07:43.544Z,0.52
2023-01-12T03:10:19.631Z,0.57
2023-01-12T03:12:55.231Z,0.70
2023-01-12T03:15:38.210Z,1.05
2023-01-12T03:18:38.470Z,1.05
2023-01-12T03:21:50.325Z,0.95
2023-01-12T03:24:28.126Z,0.93
2023-01-12T03:27:15.624Z,0.75
2023-01-12T03:29:58.981Z,0.88
2023-01-12T03:32:26.055Z,0.68
2023-01-12T03:35:05.992Z,0.73
2023-01-12T03:38:07.331Z,0.68
2023-01-12T03:40:56.356Z,0.68
2023-01-12T03:43:31.436Z,0.28
2023-01-12T03:46:15.704Z,0.55
2023-01-12T03:48:56.437Z,0.77
2023-01-12T03:51:39.262Z,0.80
2023-01-12T03:54:15.771Z,0.45
2023-01-12T03:56:43.190Z,0.30
2023-01-12T03:59:16.978Z,0.60
2023-01-12T04:01:49.010Z,0.90
2023-01-12T04:04:16.507Z,0.45
2023-01-12T04:06:50.373Z,0.40
2023-01-12T04:12:12.123Z,0.40
2023-01-12T04:14:52.535Z,0.68
2023-01-12T04:17:25.631Z,0.38
2023-01-12T04:19:52.824Z,0.38
2023-01-12T04:22:38.257Z,0.32
2023-01-12T04:25:16.671Z,0.45
2023-01-12T04:27:51.082Z,0.45
2023-01-12T04:30:32.117Z,0.50
2023-01-12T04:33:02.415Z,0.82
2023-01-12T04:35:33.444Z,0.45
2023-01-12T04:38:12.855Z,0.60
2023-01-12T04:40:55.823Z,0.52
2023-01-12T04:43:29.321Z,0.65
2023-01-12T04:46:01.043Z,0.43
2023-01-12T04:48:28.005Z,0.65
2023-01-12T04:50:58.288Z,0.47
2023-01-12T04:53:33.182Z,0.35
2023-01-12T04:56:04.544Z,0.73
2023-01-12T04:58:35.577Z,0.77
2023-01-12T05:01:18.172Z,0.20
2023-01-12T05:03:49.692Z,0.25
2023-01-12T05:06:21.613Z,0.40
2023-01-12T05:09:23.448Z,0.43
2023-01-12T05:11:50.654Z,0.25
2023-01-12T05:14:22.854Z,0.40
2023-01-12T05:16:49.836Z,0.22
2023-01-12T05:19:33.716Z,0.40
2023-01-12T05:22:03.546Z,0.40
2023-01-12T05:24:34.341Z,0.40
2023-01-12T05:27:01.498Z,0.38
2023-01-12T05:29:28.775Z,0.75
2023-01-12T05:31:56.758Z,0.70
2023-01-12T05:34:23.774Z,0.47
2023-01-12T05:36:53.596Z,0.40
2023-01-12T05:39:29.670Z,0.38
2023-01-12T05:42:25.782Z,0.20
2023-01-12T05:44:58.390Z,0.25
2023-01-12T05:47:29.660Z,0.30
2023-01-12T05:50:02.499Z,0.30
2023-01-12T05:52:30.704Z,0.30
2023-01-12T05:55:03.226Z,0.55
2023-01-12T05:57:44.119Z,0.40
2023-01-12T06:00:21.211Z,0.30
2023-01-12T06:02:48.661Z,0.30
2023-01-12T06:05:40.106Z,0.30
2023-01-12T06:08:18.994Z,0.30
2023-01-12T06:10:52.837Z,0.10
2023-01-12T06:16:11.587Z,0.20
2023-01-12T06:19:01.354Z,0.60
2023-01-12T06:22:26.587Z,0.25
2023-01-12T06:24:33.420Z,0.40
2023-01-12T06:27:12.242Z,0.32
2023-01-12T06:29:49.847Z,0.47
2023-01-12T06:32:25.016Z,0.30
2023-01-12T06:35:06.867Z,0.20
2023-01-12T06:37:46.325Z,0.40
2023-01-12T06:40:16.241Z,0.40
2023-01-12T06:42:48.525Z,0.17
2023-01-12T06:45:15.593Z,0.35
2023-01-12T06:47:49.882Z,0.28
2023-01-12T06:50:22.999Z,0.17
2023-01-12T06:52:54.837Z,0.35
2023-01-12T06:55:22.197Z,0.82
2023-01-12T06:57:52.456Z,0.40
2023-01-12T07:00:28.967Z,0.25
2023-01-12T07:03:01.943Z,0.50
2023-01-12T07:05:28.850Z,0.37
2023-01-12T07:11:04.406Z,0.38
2023-01-12T07:13:31.903Z,0.50
2023-01-12T07:16:07.546Z,0.35
2023-01-12T07:18:34.919Z,0.40
2023-01-12T07:21:07.793Z,0.20
2023-01-12T07:23:43.878Z,0.30
2023-01-12T07:26:20.016Z,0.35
2023-01-12T07:28:49.859Z,0.57
2023-01-12T07:31:17.186Z,0.47
2023-01-12T07:33:44.294Z,0.30
2023-01-12T07:39:02.319Z,0.68
2023-01-12T07:41:50.028Z,0.95
2023-01-12T07:44:30.928Z,0.77
2023-01-12T07:47:03.052Z,0.80
2023-01-12T07:49:39.772Z,0.40
2023-01-12T07:52:15.583Z,0.60
2023-01-12T07:54:45.533Z,0.52
2023-01-12T07:57:21.400Z,0.30
2023-01-12T07:59:49.283Z,0.57
2023-01-12T08:05:08.433Z,0.65
2023-01-12T08:07:38.333Z,0.40
2023-01-12T08:10:11.906Z,0.70
2023-01-12T08:12:44.589Z,0.90
2023-01-12T08:15:25.759Z,0.47
2023-01-12T08:20:47.682Z,0.60
2023-01-12T08:23:27.247Z,0.50
2023-01-12T08:26:18.805Z,0.50
2023-01-12T08:28:55.445Z,0.43
2023-01-12T08:34:29.276Z,0.65
2023-01-12T08:37:09.699Z,0.95
2023-01-12T08:43:40.974Z,0.43
2023-01-12T08:46:31.643Z,0.32
2023-01-12T08:51:48.978Z,0.30
2023-01-12T08:54:21.793Z,0.52
2023-01-12T08:57:01.083Z,0.55
2023-01-12T08:59:39.467Z,0.30
2023-01-12T09:02:09.027Z,0.30
2023-01-12T09:07:52.786Z,0.77
2023-01-12T09:10:22.456Z,0.60
2023-01-12T09:18:57.932Z,0.70
2023-01-12T09:21:32.100Z,0.85
2023-01-12T09:24:09.619Z,1.17
2023-01-12T09:26:46.865Z,0.35
2023-01-12T09:29:18.257Z,0.93
2023-01-12T09:34:44.829Z,0.80
2023-01-12T09:42:01.840Z,0.40
2023-01-12T09:45:07.435Z,1.20
2023-01-12T09:48:57.222Z,0.30
2023-01-12T10:07:05.999Z,0.52
2023-01-12T10:13:08.561Z,0.35
2023-01-12T10:16:11.679Z,0.30
2023-01-12T10:18:58.000Z,0.57
2023-01-12T10:25:15.393Z,0.30
2023-01-12T10:35:13.204Z,0.70
2023-01-12T10:56:21.763Z,0.20
2023-01-12T10:59:27.329Z,0.50
2023-01-12T11:02:23.940Z,0.20
2023-01-12T11:06:06.382Z,0.73
2023-01-12T11:08:59.601Z,0.30
2023-01-12T11:11:32.132Z,0.57
2023-01-12T11:14:24.149Z,0.40
2023-01-12T11:17:03.684Z,0.63
2023-01-12T11:20:13.654Z,0.40
2023-01-12T11:23:07.800Z,0.22
2023-01-12T11:26:20.932Z,0.30
2023-01-12T11:36:42.427Z,0.20
2023-01-12T11:43:29.866Z,0.30
2023-01-12T11:50:27.916Z,0.50
2023-01-12T11:56:25.206Z,0.28
2023-01-12T12:02:24.262Z,0.40
2023-01-12T12:07:45.679Z,0.40
2023-01-12T12:10:43.555Z,0.38
2023-01-12T12:13:49.618Z,0.43
2023-01-12T12:20:12.527Z,0.40
2023-01-12T12:23:26.985Z,0.60
2023-01-12T12:26:28.674Z,0.50
2023-01-12T12:33:18.172Z,0.45
2023-01-12T12:36:39.300Z,0.30
2023-01-12T12:39:50.885Z,0.35
2023-01-12T12:43:00.523Z,0.28
2023-01-12T12:45:53.034Z,0.30
2023-01-12T12:49:25.676Z,0.35
2023-01-12T12:52:11.738Z,0.30
2023-01-12T12:59:04.603Z,0.50
2023-01-12T13:05:56.205Z,0.25
2023-01-12T13:16:08.380Z,0.32
2023-01-12T13:23:49.102Z,0.45
2023-01-12T13:26:37.977Z,0.28
2023-01-12T13:32:54.564Z,0.52
2023-01-12T13:35:42.991Z,0.20
2023-01-12T13:42:04.198Z,0.30
2023-01-12T13:44:45.802Z,0.20
2023-01-12T13:47:37.695Z,0.30
2023-01-12T13:50:36.002Z,0.30
2023-01-12T13:54:00.869Z,0.57
2023-01-12T13:56:52.824Z,0.35
2023-01-12T13:59:50.505Z,0.30
2023-01-12T14:32:05.023Z,0.40
2023-01-12T14:42:21.821Z,0.40
2023-01-12T14:48:31.217Z,0.70
2023-01-12T14:54:50.395Z,0.60
2023-01-12T14:57:54.524Z,0.47
2023-01-12T15:00:41.648Z,0.50
2023-01-12T15:03:39.344Z,0.80
2023-01-12T15:13:34.421Z,0.50
2023-01-12T15:19:41.175Z,0.68
2023-01-12T15:26:25.426Z,0.70
2023-01-12T15:29:10.359Z,0.38
2023-01-12T15:35:42.494Z,0.30
2023-01-12T15:38:18.440Z,0.30
2023-01-12T15:41:05.185Z,0.40
2023-01-12T15:47:26.093Z,0.60
2023-01-12T15:50:11.974Z,0.68
2023-01-12T15:52:48.087Z,0.38
2023-01-12T15:55:26.688Z,0.60
2023-01-12T15:57:57.330Z,0.70
2023-01-12T16:00:44.919Z,0.40
2023-01-12T16:04:09.589Z,0.50
2023-01-12T16:06:55.072Z,0.68
2023-01-12T16:09:30.637Z,0.47
2023-01-12T16:12:15.852Z,0.60
2023-01-12T16:14:54.399Z,0.57
2023-01-12T16:17:24.738Z,0.47
2023-01-12T16:20:10.842Z,0.45
2023-01-12T16:25:39.681Z,0.68
2023-01-12T16:28:07.427Z,0.88
2023-01-12T16:30:38.417Z,0.60
2023-01-12T16:33:12.594Z,0.70
2023-01-12T16:35:39.678Z,0.50
2023-01-12T16:42:03.863Z,0.65
2023-01-12T16:44:37.437Z,1.17
2023-01-12T16:47:18.245Z,0.50
2023-01-12T16:49:47.902Z,0.70
2023-01-12T16:52:25.979Z,0.35
2023-01-12T16:54:57.850Z,0.32
2023-01-12T16:57:35.810Z,0.30
2023-01-12T17:00:06.386Z,0.80
2023-01-12T17:02:33.608Z,1.35
2023-01-12T17:05:01.918Z,1.55
2023-01-12T17:07:29.142Z,0.80
2023-01-12T17:09:57.355Z,0.93
2023-01-12T17:12:27.358Z,0.73
2023-01-12T17:14:54.797Z,0.75
2023-01-12T17:17:22.231Z,1.00
2023-01-12T17:19:49.398Z,1.27
2023-01-12T17:22:20.889Z,1.00
2023-01-12T17:24:50.475Z,0.68
2023-01-12T17:27:17.796Z,0.95
2023-01-12T17:29:44.808Z,1.05
2023-01-12T17:32:14.539Z,0.98
2023-01-12T17:34:43.433Z,1.15
2023-01-12T17:37:10.794Z,1.20
2023-01-12T17:39:40.531Z,1.17
2023-01-12T17:42:26.036Z,0.95
2023-01-12T17:44:53.429Z,1.45
2023-01-12T17:47:20.538Z,1.80
2023-01-12T17:49:59.174Z,1.90
2023-01-12T17:52:26.567Z,1.90
2023-01-12T17:55:05.699Z,1.92
2023-01-12T17:57:44.646Z,2.92
2023-01-12T18:44:01.751Z,2.10
2023-01-12T18:56:33.082Z,1.73
2023-01-12T19:03:08.047Z,2.90
2023-01-12T19:06:01.583Z,3.20
2023-01-12T19:09:30.089Z,3.13
2023-01-12T19:11:59.649Z,1.70
2023-01-12T19:17:33.147Z,2.08
2023-01-12T19:20:06.408Z,3.08
2023-01-12T19:22:52.141Z,1.60
2023-01-12T19:25:50.171Z,2.30
2023-01-12T19:28:37.716Z,2.90
2023-01-12T19:31:12.065Z,2.83
2023-01-12T19:33:45.379Z,2.50
2023-01-12T19:36:15.697Z,2.45
2023-01-12T19:38:44.411Z,2.15
2023-01-12T19:41:13.373Z,3.03
2023-01-12T19:43:45.613Z,2.15
2023-01-12T19:46:15.670Z,2.53
2023-01-12T19:48:43.132Z,3.40
2023-01-12T19:51:13.383Z,2.83
2023-01-12T19:53:40.619Z,2.40
2023-01-12T19:56:22.280Z,3.78
2023-01-12T19:58:50.918Z,2.80
2023-01-12T20:01:21.960Z,2.55
2023-01-12T20:03:50.729Z,3.22
2023-01-12T20:06:22.037Z,2.00
2023-01-12T20:08:54.716Z,2.40
2023-01-12T20:11:21.864Z,3.35
2023-01-12T20:13:48.964Z,3.53
2023-01-12T20:16:16.108Z,2.47
2023-01-12T20:18:43.710Z,3.17
2023-01-12T20:21:13.026Z,3.28
2023-01-12T20:23:40.194Z,3.08
2023-01-12T20:26:11.622Z,2.22
2023-01-12T20:28:38.859Z,2.80
2023-01-12T20:31:13.673Z,2.67
2023-01-12T20:38:21.321Z,2.33
2023-01-12T20:41:20.508Z,2.25
2023-01-12T20:43:51.769Z,2.42
2023-01-12T20:46:33.096Z,2.35
2023-01-12T20:49:12.496Z,2.10
2023-01-12T20:53:08.526Z,2.88
2023-01-12T20:55:18.575Z,1.75
2023-01-12T20:57:51.866Z,1.92
2023-01-12T21:00:35.952Z,2.58
2023-01-12T21:03:11.644Z,2.70
2023-01-12T21:05:56.370Z,1.73
2023-01-12T21:08:34.321Z,2.72
2023-01-12T21:11:01.867Z,1.98
2023-01-12T21:13:48.794Z,1.83
2023-01-12T21:16:18.328Z,1.95
2023-01-12T21:18:58.525Z,2.45
2023-01-12T21:21:34.841Z,2.13
2023-01-12T21:24:02.349Z,2.45
2023-01-12T21:26:31.991Z,2.58
2023-01-12T21:29:01.605Z,2.10
2023-01-12T21:31:55.239Z,1.83
2023-01-12T21:34:45.411Z,2.63
2023-01-12T21:40:40.235Z,2.25
2023-01-12T21:43:10.446Z,1.95
2023-01-12T21:45:41.268Z,2.22
2023-01-12T21:48:09.136Z,2.75
2023-01-12T21:50:37.728Z,2.88
2023-01-12T21:53:10.615Z,2.85
2023-01-12T21:55:38.022Z,2.38
2023-01-12T21:58:07.615Z,2.20
2023-01-12T22:00:34.781Z,2.40
2023-01-12T22:03:01.822Z,2.78
2023-01-12T22:05:34.807Z,2.05
2023-01-12T22:08:08.022Z,2.70
2023-01-12T22:10:35.178Z,2.53
2023-01-12T22:13:17.572Z,2.58
2023-01-12T22:15:52.302Z,3.05
2023-01-12T22:18:22.827Z,2.17
2023-01-12T22:23:52.952Z,2.10
2023-01-12T22:34:52.241Z,2.25
2023-01-12T22:48:46.529Z,2.25
2023-01-12T22:52:12.458Z,1.77
2023-01-12T22:55:02.577Z,1.98
2023-01-12T23:00:47.167Z,1.60
2023-01-12T23:03:22.664Z,1.65
2023-01-12T23:06:07.583Z,1.35
2023-01-12T23:08:49.053Z,2.30
2023-01-12T23:12:14.477Z,1.83
2023-01-12T23:25:48.562Z,2.03
2023-01-12T23:28:41.646Z,1.67
2023-01-12T23:31:13.874Z,1.52
2023-01-12T23:33:52.128Z,1.50
2023-01-12T23:39:17.515Z,1.50
2023-01-12T23:42:00.960Z,1.55
2023-01-12T23:47:09.092Z,1.40
2023-01-12T23:49:43.667Z,1.42
2023-01-12T23:55:58.361Z,1.27
2023-01-12T23:58:25.629Z,1.67
